Dallas Love Field

KDAL · Texas, United States

METAR history KDAL · Dallas Love Field

Below you see METARs of the last few days. Select a year to browse through older METARs, from the year 2007 onwards.

April 12, 2024

Time Code Weather Temp. Visibility Ceiling Wind METAR/SPECI
23:53
V
21 °C 10 mi 25,000 ft 160° 160° 10 kt METAR KDAL 130453Z 16010KT 10SM BKN250 21/09 A3019 RMK AO2 SLP219 T02110094
22:53
V
22 °C 10 mi 25,000 ft 160° 160° 9 kt METAR KDAL 130353Z 16009KT 10SM BKN250 22/09 A3020 RMK AO2 SLP219 T02170094
21:53
V
22 °C 10 mi 25,000 ft 170° 170° 8 kt METAR KDAL 130253Z 17008KT 10SM BKN250 22/09 A3018 RMK AO2 SLP216 T02220089 51012
20:53
V
23 °C 10 mi 25,000 ft 160° 160° 7 kt METAR KDAL 130153Z 16007KT 10SM BKN250 23/09 A3017 RMK AO2 SLP213 T02280094
19:53
V
23 °C 10 mi 25,000 ft 170° 170° 7 kt METAR KDAL 130053Z 17007KT 10SM BKN250 23/08 A3016 RMK AO2 SLP209 T02330083
18:53
V
24 °C 10 mi 25,000 ft 180° 180° 12 - 19 kt METAR KDAL 122353Z 18012G19KT 10SM BKN250 24/08 A3015 RMK AO2 SLP205 T02440083 10267 20244 56008
17:53
V
26 °C 10 mi 25,000 ft 190° 190° 8 kt METAR KDAL 122253Z 19008KT 10SM BKN250 26/08 A3015 RMK AO2 SLP205 T02560078
16:53
V
26 °C 10 mi 25,000 ft 180° 180° 8 - 19 kt METAR KDAL 122153Z 18008G19KT 10SM BKN250 26/08 A3016 RMK AO2 SLP208 T02610078
15:53
V
27 °C 10 mi 25,000 ft 210° 210° 10 - 17 kt METAR KDAL 122053Z 21010G17KT 10SM BKN250 27/08 A3017 RMK AO2 SLP213 T02670078 58021
14:53
V
26 °C 10 mi 25,000 ft 180° 180° 14 - 22 kt METAR KDAL 121953Z 18014G22KT 10SM BKN250 26/07 A3020 RMK AO2 SLP221 T02610067
13:53
V
26 °C 10 mi 25,000 ft 160° 160° 13 - 19 kt METAR KDAL 121853Z 16013G19KT 10SM BKN250 26/07 A3021 RMK AO2 SLP227 T02560067 $
12:53
V
26 °C 10 mi - 170° 170° 11 kt METAR KDAL 121753Z 17011KT 10SM SCT250 26/05 A3024 RMK AO2 SLP234 T02560050 10256 20100 58002 $
11:53
V
24 °C 10 mi - 190° 190° 6 kt METAR KDAL 121653Z 19006KT 10SM FEW250 24/05 A3026 RMK AO2 SLP241 T02390050 $
10:53
V
22 °C 10 mi - 160° 160° 7 kt METAR KDAL 121553Z 16007KT 10SM FEW250 22/05 A3026 RMK AO2 SLP242 T02170050 $
09:53
V
19 °C 10 mi - 170° 170° 5 kt METAR KDAL 121453Z 17005KT 10SM FEW250 19/06 A3024 RMK AO2 SLP236 T01940056 51015 $
08:53
V
17 °C 10 mi - 180° 180° 3 kt METAR KDAL 121353Z 18003KT 10SM FEW250 17/09 A3023 RMK AO2 SLP233 T01670089 $
07:53
V
12 °C 10 mi - 360° 360° 0 kt METAR KDAL 121253Z 00000KT 10SM FEW250 12/09 A3021 RMK AO2 SLP228 T01170094 $
06:53
V
11 °C 10 mi - 360° 360° 0 kt METAR KDAL 121153Z 00000KT 10SM FEW250 11/09 A3020 RMK AO2 SLP222 T01060089 10128 20100 51013 $
05:53
V
10 °C 10 mi - 360° 360° 0 kt METAR KDAL 121053Z COR 00000KT 10SM FEW250 10/09 A3018 RMK AO2 SLP217 T01000089 $
04:53
V
12 °C 10 mi - 360° 360° 0 kt METAR KDAL 120953Z 00000KT 10SM CLR 12/10 A3018 RMK AO2 SLP214 T01220100 $
03:53
V
11 °C 10 mi - 360° 360° 0 kt METAR KDAL 120853Z 00000KT 10SM CLR 11/08 A3016 RMK AO2 SLP209 T01060078 53005 $
02:53
V
11 °C 10 mi - 360° 360° 0 kt METAR KDAL 120753Z 00000KT 10SM CLR 11/08 A3014 RMK AO2 SLP203 T01110078 $
01:53
V
11 °C 10 mi - 360° 360° 0 kt METAR KDAL 120653Z 00000KT 10SM CLR 11/08 A3014 RMK AO2 SLP203 T01110078 $
00:53
V
12 °C 10 mi - 360° 360° 0 kt METAR KDAL 120553Z 00000KT 10SM CLR 12/07 A3014 RMK AO2 SLP204 T01220072 10222 20117 402330089 50008

April 11, 2024

Time Code Weather Temp. Visibility Ceiling Wind METAR/SPECI
23:53
V
13 °C 10 mi - 360° 360° 0 kt METAR KDAL 120453Z 00000KT 10SM CLR 13/07 A3015 RMK AO2 SLP207 T01330072
22:53
V
16 °C 10 mi - 360° 360° 0 kt METAR KDAL 120353Z 00000KT 10SM CLR 16/06 A3014 RMK AO2 SLP203 T01610056
21:53
V
16 °C 10 mi - 360° 360° 0 kt METAR KDAL 120253Z 00000KT 10SM CLR 16/05 A3012 RMK AO2 SLP195 T01610050 53019
20:53
V
19 °C 10 mi - 330° 330° 5 kt METAR KDAL 120153Z 33005KT 10SM CLR 19/03 A3009 RMK AO2 SLP186 T01890028
19:53
V
21 °C 10 mi - 310° 310° 8 kt METAR KDAL 120053Z 31008KT 10SM CLR 21/02 A3007 RMK AO2 SLP179 T02060017
18:53
V
22 °C 10 mi - 300° 300° 12 kt METAR KDAL 112353Z 30012KT 10SM CLR 22/02 A3006 RMK AO2 SLP176 T02220017 10233 20211 56003
17:53
V
23 °C 10 mi - 320° 320° 15 - 20 kt METAR KDAL 112253Z 32015G20KT 10SM CLR 23/03 A3006 RMK AO2 PK WND 31028/2200 SLP177 T02280033
16:53
V
23 °C 10 mi - 320° 320° 14 - 21 kt METAR KDAL 112153Z 32014G21KT 10SM CLR 23/03 A3006 RMK AO2 PK WND 33028/2127 SLP176 T02280033
15:53
V
23 °C 10 mi - 300° 300° 14 - 20 kt METAR KDAL 112053Z 30014G20KT 10SM CLR 23/04 A3007 RMK AO2 SLP179 T02280039 58012
14:53
V
22 °C 10 mi - 330° 330° 14 - 22 kt METAR KDAL 111953Z 33014G22KT 10SM CLR 22/05 A3008 RMK AO2 PK WND 01029/1940 SLP184 T02220050
13:53
V
22 °C 10 mi - 320° 320° 14 - 21 kt METAR KDAL 111853Z 32014G21KT 10SM CLR 22/07 A3010 RMK AO2 PK WND 32026/1833 SLP190 T02170067
12:53
V
21 °C 10 mi - 330° 330° 16 - 21 kt METAR KDAL 111753Z 33016G21KT 10SM CLR 21/06 A3011 RMK AO2 SLP192 T02110061 10211 20100 51016
11:53
V
20 °C 10 mi - 350° 350° 10 - 26 kt METAR KDAL 111653Z 35010G26KT 10SM FEW003 20/06 A3010 RMK AO2 PK WND 36026/1646 SLP189 FU FEW003 W T02000056
10:53
V
18 °C 10 mi - 360° 360° 11 - 21 kt METAR KDAL 111553Z 36011G21KT 10SM CLR 18/07 A3009 RMK AO2 SLP185 T01830067
09:53
V
16 °C 10 mi - 350° 350° 15 - 25 kt METAR KDAL 111453Z 35015G25KT 10SM CLR 16/07 A3006 RMK AO2 PK WND 36026/1426 SLP176 T01610072 51036
08:53
V
14 °C 10 mi - 320° 320° 12 kt METAR KDAL 111353Z 32012KT 10SM FEW010 14/09 A3003 RMK AO2 SLP166 FU FEW010 SW-W T01390094
07:53
V
12 °C 10 mi - 290° 290° 6 kt METAR KDAL 111253Z 29006KT 10SM CLR 12/09 A2999 RMK AO2 SLP154 T01170094
06:53
V
11 °C 10 mi - 360° 360° 0 kt METAR KDAL 111153Z 00000KT 10SM CLR 11/09 A2995 RMK AO2 SLP140 70036 T01060094 10117 20089 53013
05:53
V
9 °C 10 mi - 270° 270° 3 kt METAR KDAL 111053Z 27003KT 10SM CLR 09/08 A2993 RMK AO2 SLP132 T00940083
04:53
V
9 °C 10 mi - 360° 360° 0 kt METAR KDAL 110953Z 00000KT 10SM CLR 09/08 A2991 RMK AO2 SLP124 T00940083
03:53
V
9 °C 10 mi - 320° 320° 4 kt METAR KDAL 110853Z 32004KT 10SM CLR 09/08 A2992 RMK AO2 SLP127 T00940083 51005
02:53
V
10 °C 10 mi - 310° 310° 4 kt METAR KDAL 110753Z 31004KT 10SM CLR 10/08 A2991 RMK AO2 SLP127 T01000083
01:53
V
11 °C 10 mi - 310° 310° 6 kt METAR KDAL 110653Z 31006KT 10SM CLR 11/08 A2991 RMK AO2 SLP125 T01060083
00:53
V
12 °C 10 mi - 330° 330° 7 kt METAR KDAL 110553Z 33007KT 10SM FEW250 12/09 A2990 RMK AO2 SLP122 T01170089 10161 20111 401890111 51015
Report a change